LFCK/DCM METAR and TAF weather

Enter ICAO airport designator
Station Type Date Time Source
LFCK METAR 2022/01/19 20:30 UTC NOAA

LFCK 192030Z AUTO 33006KT 5000 BR OVC010 04/04 Q1031 TEMPO 2000 -DZ OVC004


Station Type Date Time Source
LFCK Decoded METAR 2022/01/19 20:30 UTC NOAA

Station name not available
Jan 19, 2022 - 03:30 PM EST / 2022.01.19 2030 UTC
Wind: from the NNW (330 degrees) at 7 MPH (6 KT):0
Visibility: 3 mile(s):0
Sky conditions: overcast
Weather: mist
Temperature: 39 F (4 C)
Dew Point: 39 F (4 C)
Relative Humidity: 100%
Pressure (altimeter): 30.45 in. Hg (1031 hPa)
ob: LFCK 192030Z AUTO 33006KT 5000 BR OVC010 04/04 Q1031 TEMPO 2000 -DZ OVC004
cycle: 20

Station Type Date Time Source
LFCK TAF UTC NOAA

Error!

Example: see airport list